sensor_id;sensor_type;location;lat;lon;timestamp;temperature;humidity
49224;DHT22;35050;51.316;5.994;2023-07-22T00:01:24;16.50;99.90
49224;DHT22;35050;51.316;5.994;2023-07-22T00:03:49;16.70;99.90
49224;DHT22;35050;51.316;5.994;2023-07-22T00:06:15;16.50;99.90
49224;DHT22;35050;51.316;5.994;2023-07-22T00:08:40;16.60;99.90
49224;DHT22;35050;51.316;5.994;2023-07-22T00:11:06;16.60;99.90
49224;DHT22;35050;51.316;5.994;2023-07-22T00:13:33;16.60;99.90
49224;DHT22;35050;51.316;5.994;2023-07-22T00:15:59;16.50;99.90
49224;DHT22;35050;51.316;5.994;2023-07-22T00:18:26;16.70;99.90
49224;DHT22;35050;51.316;5.994;2023-07-22T00:20:53;16.60;99.90
49224;DHT22;35050;51.316;5.994;2023-07-22T00:23:19;16.70;99.90
49224;DHT22;35050;51.316;5.994;2023-07-22T00:25:46;16.50;99.90
49224;DHT22;35050;51.316;5.994;2023-07-22T00:28:11;16.70;99.90
49224;DHT22;35050;51.316;5.994;2023-07-22T00:30:37;16.70;99.90
49224;DHT22;35050;51.316;5.994;2023-07-22T00:33:02;16.70;99.90
49224;DHT22;35050;51.316;5.994;2023-07-22T00:35:28;16.80;99.90
49224;DHT22;35050;51.316;5.994;2023-07-22T00:37:54;16.70;99.90
49224;DHT22;35050;51.316;5.994;2023-07-22T00:40:19;16.70;99.90
49224;DHT22;35050;51.316;5.994;2023-07-22T00:42:45;16.80;99.90
49224;DHT22;35050;51.316;5.994;2023-07-22T00:45:11;16.80;99.90
49224;DHT22;35050;51.316;5.994;2023-07-22T00:47:37;16.80;99.90
49224;DHT22;35050;51.316;5.994;2023-07-22T00:50:05;16.80;99.90
49224;DHT22;35050;51.316;5.994;2023-07-22T00:52:32;16.70;99.90
49224;DHT22;35050;51.316;5.994;2023-07-22T00:54:58;16.60;99.90
49224;DHT22;35050;51.316;5.994;2023-07-22T00:57:24;16.60;99.90
49224;DHT22;35050;51.316;5.994;2023-07-22T00:59:50;16.60;99.90
49224;DHT22;35050;51.316;5.994;2023-07-22T01:02:16;16.50;99.90
49224;DHT22;35050;51.316;5.994;2023-07-22T01:04:42;16.50;99.90
49224;DHT22;35050;51.316;5.994;2023-07-22T01:07:08;16.50;99.90
49224;DHT22;35050;51.316;5.994;2023-07-22T01:09:44;16.60;99.90
49224;DHT22;35050;51.316;5.994;2023-07-22T01:12:10;16.60;99.90
49224;DHT22;35050;51.316;5.994;2023-07-22T01:14:37;16.60;99.90
49224;DHT22;35050;51.316;5.994;2023-07-22T01:17:05;16.50;99.90
49224;DHT22;35050;51.316;5.994;2023-07-22T01:19:32;16.50;99.90
49224;DHT22;35050;51.316;5.994;2023-07-22T01:22:03;16.50;99.90
49224;DHT22;35050;51.316;5.994;2023-07-22T01:24:30;16.60;99.90
49224;DHT22;35050;51.316;5.994;2023-07-22T01:26:56;16.40;99.90
49224;DHT22;35050;51.316;5.994;2023-07-22T01:29:22;16.60;99.90
49224;DHT22;35050;51.316;5.994;2023-07-22T01:31:53;16.50;99.90
49224;DHT22;35050;51.316;5.994;2023-07-22T01:34:19;16.50;99.90
49224;DHT22;35050;51.316;5.994;2023-07-22T01:36:46;16.60;99.90
49224;DHT22;35050;51.316;5.994;2023-07-22T01:39:16;16.60;99.90
49224;DHT22;35050;51.316;5.994;2023-07-22T01:41:42;16.60;99.90
49224;DHT22;35050;51.316;5.994;2023-07-22T01:44:08;16.50;99.90
49224;DHT22;35050;51.316;5.994;2023-07-22T01:46:34;16.60;99.90
49224;DHT22;35050;51.316;5.994;2023-07-22T01:49:00;16.50;99.90
49224;DHT22;35050;51.316;5.994;2023-07-22T01:51:27;16.60;99.90
49224;DHT22;35050;51.316;5.994;2023-07-22T01:53:53;16.60;99.90
49224;DHT22;35050;51.316;5.994;2023-07-22T01:56:19;16.40;99.90
49224;DHT22;35050;51.316;5.994;2023-07-22T01:58:46;16.50;99.90
49224;DHT22;35050;51.316;5.994;2023-07-22T02:01:11;16.30;99.90
49224;DHT22;35050;51.316;5.994;2023-07-22T02:03:40;16.40;99.90
49224;DHT22;35050;51.316;5.994;2023-07-22T02:06:06;16.40;99.90
49224;DHT22;35050;51.316;5.994;2023-07-22T02:08:32;16.40;99.90
49224;DHT22;35050;51.316;5.994;2023-07-22T02:11:05;16.20;99.90
49224;DHT22;35050;51.316;5.994;2023-07-22T02:13:32;16.30;99.90
49224;DHT22;35050;51.316;5.994;2023-07-22T02:15:59;16.30;99.90
49224;DHT22;35050;51.316;5.994;2023-07-22T02:18:24;16.30;99.90
49224;DHT22;35050;51.316;5.994;2023-07-22T02:20:50;16.30;99.90
49224;DHT22;35050;51.316;5.994;2023-07-22T02:23:16;16.30;99.90
49224;DHT22;35050;51.316;5.994;2023-07-22T02:25:42;16.20;99.90
49224;DHT22;35050;51.316;5.994;2023-07-22T02:28:07;16.00;99.90
49224;DHT22;35050;51.316;5.994;2023-07-22T02:30:37;16.10;99.90
49224;DHT22;35050;51.316;5.994;2023-07-22T02:33:04;16.00;99.90
49224;DHT22;35050;51.316;5.994;2023-07-22T02:35:30;16.20;99.90
49224;DHT22;35050;51.316;5.994;2023-07-22T02:37:56;16.20;99.90
49224;DHT22;35050;51.316;5.994;2023-07-22T02:40:21;16.10;99.90
49224;DHT22;35050;51.316;5.994;2023-07-22T02:42:47;16.20;99.90
49224;DHT22;35050;51.316;5.994;2023-07-22T02:45:13;16.10;99.90
49224;DHT22;35050;51.316;5.994;2023-07-22T02:47:38;16.00;99.90
49224;DHT22;35050;51.316;5.994;2023-07-22T02:50:06;16.10;99.90
49224;DHT22;35050;51.316;5.994;2023-07-22T02:52:32;16.10;99.90
49224;DHT22;35050;51.316;5.994;2023-07-22T02:55:06;16.20;99.90
49224;DHT22;35050;51.316;5.994;2023-07-22T02:57:32;16.10;99.90
49224;DHT22;35050;51.316;5.994;2023-07-22T02:59:58;16.20;99.90
49224;DHT22;35050;51.316;5.994;2023-07-22T03:02:23;16.20;99.90
49224;DHT22;35050;51.316;5.994;2023-07-22T03:04:49;16.20;99.90
49224;DHT22;35050;51.316;5.994;2023-07-22T03:07:15;16.20;99.90
49224;DHT22;35050;51.316;5.994;2023-07-22T03:09:41;16.10;99.90
49224;DHT22;35050;51.316;5.994;2023-07-22T03:12:07;16.10;99.90
49224;DHT22;35050;51.316;5.994;2023-07-22T03:14:33;16.00;99.90
49224;DHT22;35050;51.316;5.994;2023-07-22T03:17:02;16.00;99.90
49224;DHT22;35050;51.316;5.994;2023-07-22T03:19:29;16.10;99.90
49224;DHT22;35050;51.316;5.994;2023-07-22T03:21:55;16.20;99.90
49224;DHT22;35050;51.316;5.994;2023-07-22T03:24:20;16.20;99.90
49224;DHT22;35050;51.316;5.994;2023-07-22T03:26:46;16.10;99.90
49224;DHT22;35050;51.316;5.994;2023-07-22T03:29:11;16.10;99.90
49224;DHT22;35050;51.316;5.994;2023-07-22T03:31:39;16.10;99.90
49224;DHT22;35050;51.316;5.994;2023-07-22T03:34:05;16.10;99.90
49224;DHT22;35050;51.316;5.994;2023-07-22T03:36:31;16.20;99.90
49224;DHT22;35050;51.316;5.994;2023-07-22T03:38:59;16.20;99.90
49224;DHT22;35050;51.316;5.994;2023-07-22T03:41:25;16.20;99.90
49224;DHT22;35050;51.316;5.994;2023-07-22T03:43:51;16.30;99.90
49224;DHT22;35050;51.316;5.994;2023-07-22T03:46:16;16.20;99.90
49224;DHT22;35050;51.316;5.994;2023-07-22T03:48:42;16.30;99.90
49224;DHT22;35050;51.316;5.994;2023-07-22T03:51:08;16.30;99.90
49224;DHT22;35050;51.316;5.994;2023-07-22T03:53:33;16.20;99.90
49224;DHT22;35050;51.316;5.994;2023-07-22T03:55:59;16.10;99.90
49224;DHT22;35050;51.316;5.994;2023-07-22T03:58:24;16.20;99.90
49224;DHT22;35050;51.316;5.994;2023-07-22T04:00:50;16.10;99.90
49224;DHT22;35050;51.316;5.994;2023-07-22T04:03:16;16.10;99.90
49224;DHT22;35050;51.316;5.994;2023-07-22T04:05:41;16.10;99.90
49224;DHT22;35050;51.316;5.994;2023-07-22T04:08:07;16.00;99.90
49224;DHT22;35050;51.316;5.994;2023-07-22T04:10:33;16.00;99.90
49224;DHT22;35050;51.316;5.994;2023-07-22T04:12:58;16.00;99.90
49224;DHT22;35050;51.316;5.994;2023-07-22T04:15:24;16.10;99.90
49224;DHT22;35050;51.316;5.994;2023-07-22T04:17:50;16.20;99.90
49224;DHT22;35050;51.316;5.994;2023-07-22T04:20:16;16.10;99.90
49224;DHT22;35050;51.316;5.994;2023-07-22T04:22:43;16.20;99.90
49224;DHT22;35050;51.316;5.994;2023-07-22T04:25:09;16.10;99.90
49224;DHT22;35050;51.316;5.994;2023-07-22T04:27:35;16.10;99.90
49224;DHT22;35050;51.316;5.994;2023-07-22T04:30:01;16.20;99.90
49224;DHT22;35050;51.316;5.994;2023-07-22T04:32:26;16.10;99.90
49224;DHT22;35050;51.316;5.994;2023-07-22T04:34:52;16.10;99.90
49224;DHT22;35050;51.316;5.994;2023-07-22T04:37:18;16.00;99.90
49224;DHT22;35050;51.316;5.994;2023-07-22T04:39:49;16.10;99.90
49224;DHT22;35050;51.316;5.994;2023-07-22T04:42:15;16.00;99.90
49224;DHT22;35050;51.316;5.994;2023-07-22T04:44:40;16.00;99.90
49224;DHT22;35050;51.316;5.994;2023-07-22T04:47:06;16.10;99.90
49224;DHT22;35050;51.316;5.994;2023-07-22T04:49:32;16.00;99.90
49224;DHT22;35050;51.316;5.994;2023-07-22T04:51:57;16.10;99.90
49224;DHT22;35050;51.316;5.994;2023-07-22T04:54:23;16.10;99.90
49224;DHT22;35050;51.316;5.994;2023-07-22T04:56:48;16.10;99.90
49224;DHT22;35050;51.316;5.994;2023-07-22T04:59:14;16.10;99.90
49224;DHT22;35050;51.316;5.994;2023-07-22T05:01:40;15.90;99.90
49224;DHT22;35050;51.316;5.994;2023-07-22T05:04:06;16.10;99.90
49224;DHT22;35050;51.316;5.994;2023-07-22T05:06:32;16.00;99.90
49224;DHT22;35050;51.316;5.994;2023-07-22T05:08:58;16.20;99.90
49224;DHT22;35050;51.316;5.994;2023-07-22T05:11:24;16.30;99.90
49224;DHT22;35050;51.316;5.994;2023-07-22T05:13:49;16.30;99.90
49224;DHT22;35050;51.316;5.994;2023-07-22T05:16:15;16.10;99.90
49224;DHT22;35050;51.316;5.994;2023-07-22T05:18:42;16.40;99.90
49224;DHT22;35050;51.316;5.994;2023-07-22T05:21:07;16.40;99.90
49224;DHT22;35050;51.316;5.994;2023-07-22T05:23:33;16.40;99.90
49224;DHT22;35050;51.316;5.994;2023-07-22T05:25:59;16.50;99.90
49224;DHT22;35050;51.316;5.994;2023-07-22T05:28:26;16.30;99.90
49224;DHT22;35050;51.316;5.994;2023-07-22T05:30:51;16.30;99.90
49224;DHT22;35050;51.316;5.994;2023-07-22T05:33:17;16.40;99.90
49224;DHT22;35050;51.316;5.994;2023-07-22T05:35:43;16.50;99.90
49224;DHT22;35050;51.316;5.994;2023-07-22T05:38:08;16.50;99.90
49224;DHT22;35050;51.316;5.994;2023-07-22T05:40:34;16.60;99.90
49224;DHT22;35050;51.316;5.994;2023-07-22T05:43:00;16.70;99.90
49224;DHT22;35050;51.316;5.994;2023-07-22T05:45:26;16.40;99.90
49224;DHT22;35050;51.316;5.994;2023-07-22T05:47:51;16.40;99.90
49224;DHT22;35050;51.316;5.994;2023-07-22T05:50:17;16.40;99.90
49224;DHT22;35050;51.316;5.994;2023-07-22T05:52:43;16.30;99.90
49224;DHT22;35050;51.316;5.994;2023-07-22T05:55:09;16.40;99.90
49224;DHT22;35050;51.316;5.994;2023-07-22T05:57:35;16.60;99.90
49224;DHT22;35050;51.316;5.994;2023-07-22T06:00:01;16.80;99.90
49224;DHT22;35050;51.316;5.994;2023-07-22T06:02:27;16.80;99.90
49224;DHT22;35050;51.316;5.994;2023-07-22T06:04:53;16.60;99.90
49224;DHT22;35050;51.316;5.994;2023-07-22T06:07:19;16.70;99.90
49224;DHT22;35050;51.316;5.994;2023-07-22T06:09:44;16.80;99.90
49224;DHT22;35050;51.316;5.994;2023-07-22T06:12:10;16.70;99.90
49224;DHT22;35050;51.316;5.994;2023-07-22T06:14:36;16.80;99.90
49224;DHT22;35050;51.316;5.994;2023-07-22T06:17:02;16.70;99.90
49224;DHT22;35050;51.316;5.994;2023-07-22T06:19:28;16.90;99.90
49224;DHT22;35050;51.316;5.994;2023-07-22T06:21:53;16.90;99.90
49224;DHT22;35050;51.316;5.994;2023-07-22T06:24:19;17.20;99.90
49224;DHT22;35050;51.316;5.994;2023-07-22T06:26:45;17.10;99.90
49224;DHT22;35050;51.316;5.994;2023-07-22T06:29:10;16.90;99.90
49224;DHT22;35050;51.316;5.994;2023-07-22T06:31:36;17.00;99.90
49224;DHT22;35050;51.316;5.994;2023-07-22T06:34:02;16.80;99.90
49224;DHT22;35050;51.316;5.994;2023-07-22T06:36:28;16.90;99.90
49224;DHT22;35050;51.316;5.994;2023-07-22T06:38:54;17.00;99.90
49224;DHT22;35050;51.316;5.994;2023-07-22T06:41:20;17.10;99.90
49224;DHT22;35050;51.316;5.994;2023-07-22T06:43:46;17.00;99.90
49224;DHT22;35050;51.316;5.994;2023-07-22T06:46:11;17.30;99.90
49224;DHT22;35050;51.316;5.994;2023-07-22T06:48:37;17.50;99.90
49224;DHT22;35050;51.316;5.994;2023-07-22T06:51:02;17.40;99.90
49224;DHT22;35050;51.316;5.994;2023-07-22T06:53:28;17.50;99.90
49224;DHT22;35050;51.316;5.994;2023-07-22T06:55:54;17.40;99.90
49224;DHT22;35050;51.316;5.994;2023-07-22T06:58:20;17.50;99.90
49224;DHT22;35050;51.316;5.994;2023-07-22T07:00:46;17.50;99.90
49224;DHT22;35050;51.316;5.994;2023-07-22T07:03:12;17.70;99.90
49224;DHT22;35050;51.316;5.994;2023-07-22T07:05:37;17.50;99.90
49224;DHT22;35050;51.316;5.994;2023-07-22T07:08:07;17.60;99.90
49224;DHT22;35050;51.316;5.994;2023-07-22T07:10:37;17.70;99.90
49224;DHT22;35050;51.316;5.994;2023-07-22T07:13:03;17.70;99.90
49224;DHT22;35050;51.316;5.994;2023-07-22T07:15:28;17.70;99.90
49224;DHT22;35050;51.316;5.994;2023-07-22T07:17:54;17.30;99.90
49224;DHT22;35050;51.316;5.994;2023-07-22T07:20:20;17.70;99.90
49224;DHT22;35050;51.316;5.994;2023-07-22T07:22:45;17.80;99.90
49224;DHT22;35050;51.316;5.994;2023-07-22T07:25:11;17.80;99.90
49224;DHT22;35050;51.316;5.994;2023-07-22T07:27:37;18.20;99.90
49224;DHT22;35050;51.316;5.994;2023-07-22T07:30:03;17.90;99.90
49224;DHT22;35050;51.316;5.994;2023-07-22T07:32:28;18.00;99.90
49224;DHT22;35050;51.316;5.994;2023-07-22T07:34:54;18.10;99.90
49224;DHT22;35050;51.316;5.994;2023-07-22T07:37:19;18.30;99.90
49224;DHT22;35050;51.316;5.994;2023-07-22T07:39:45;18.50;99.90
49224;DHT22;35050;51.316;5.994;2023-07-22T07:42:11;18.40;99.90
49224;DHT22;35050;51.316;5.994;2023-07-22T07:44:36;18.60;99.90
49224;DHT22;35050;51.316;5.994;2023-07-22T07:47:02;18.80;99.90
49224;DHT22;35050;51.316;5.994;2023-07-22T07:49:28;18.80;99.90
49224;DHT22;35050;51.316;5.994;2023-07-22T07:51:54;18.90;99.90
49224;DHT22;35050;51.316;5.994;2023-07-22T07:54:19;18.90;99.90
49224;DHT22;35050;51.316;5.994;2023-07-22T07:56:45;18.70;99.90
49224;DHT22;35050;51.316;5.994;2023-07-22T07:59:10;18.80;99.90
49224;DHT22;35050;51.316;5.994;2023-07-22T08:01:36;18.80;99.90
49224;DHT22;35050;51.316;5.994;2023-07-22T08:04:07;19.00;99.90
49224;DHT22;35050;51.316;5.994;2023-07-22T08:06:33;19.00;99.90
49224;DHT22;35050;51.316;5.994;2023-07-22T08:08:58;19.40;99.90
49224;DHT22;35050;51.316;5.994;2023-07-22T08:11:24;19.40;99.90
49224;DHT22;35050;51.316;5.994;2023-07-22T08:13:50;19.20;99.90
49224;DHT22;35050;51.316;5.994;2023-07-22T08:16:17;19.40;99.90
49224;DHT22;35050;51.316;5.994;2023-07-22T08:18:43;19.40;99.90
49224;DHT22;35050;51.316;5.994;2023-07-22T08:21:09;19.50;99.90
49224;DHT22;35050;51.316;5.994;2023-07-22T08:23:36;19.40;99.90
49224;DHT22;35050;51.316;5.994;2023-07-22T08:26:03;19.70;99.90
49224;DHT22;35050;51.316;5.994;2023-07-22T08:28:30;19.60;99.90
49224;DHT22;35050;51.316;5.994;2023-07-22T08:30:56;19.80;99.90
49224;DHT22;35050;51.316;5.994;2023-07-22T08:33:25;19.80;99.90
49224;DHT22;35050;51.316;5.994;2023-07-22T08:35:51;19.80;99.90
49224;DHT22;35050;51.316;5.994;2023-07-22T08:38:17;19.90;99.90
49224;DHT22;35050;51.316;5.994;2023-07-22T08:40:43;20.10;99.90
49224;DHT22;35050;51.316;5.994;2023-07-22T08:43:09;19.70;99.90
49224;DHT22;35050;51.316;5.994;2023-07-22T08:45:39;19.90;99.90
49224;DHT22;35050;51.316;5.994;2023-07-22T08:48:08;19.60;99.90
49224;DHT22;35050;51.316;5.994;2023-07-22T08:50:49;19.70;99.90
49224;DHT22;35050;51.316;5.994;2023-07-22T08:53:15;19.90;99.90
49224;DHT22;35050;51.316;5.994;2023-07-22T08:55:42;19.80;99.90
49224;DHT22;35050;51.316;5.994;2023-07-22T08:58:08;19.80;99.90
49224;DHT22;35050;51.316;5.994;2023-07-22T09:00:35;19.50;99.90
49224;DHT22;35050;51.316;5.994;2023-07-22T09:03:02;19.80;99.90
49224;DHT22;35050;51.316;5.994;2023-07-22T09:05:28;19.70;99.90
49224;DHT22;35050;51.316;5.994;2023-07-22T09:07:55;19.80;99.90
49224;DHT22;35050;51.316;5.994;2023-07-22T09:10:21;19.80;99.90
49224;DHT22;35050;51.316;5.994;2023-07-22T09:12:48;20.00;99.90
49224;DHT22;35050;51.316;5.994;2023-07-22T09:15:14;20.40;99.90
49224;DHT22;35050;51.316;5.994;2023-07-22T09:17:41;20.60;99.90
49224;DHT22;35050;51.316;5.994;2023-07-22T09:20:07;20.40;99.90
49224;DHT22;35050;51.316;5.994;2023-07-22T09:22:34;20.90;99.90
49224;DHT22;35050;51.316;5.994;2023-07-22T09:25:22;21.00;99.90
49224;DHT22;35050;51.316;5.994;2023-07-22T09:27:54;21.00;99.90
49224;DHT22;35050;51.316;5.994;2023-07-22T09:32:50;21.70;99.90
49224;DHT22;35050;51.316;5.994;2023-07-22T09:35:17;21.90;99.90
49224;DHT22;35050;51.316;5.994;2023-07-22T09:37:43;22.00;99.90
49224;DHT22;35050;51.316;5.994;2023-07-22T09:40:23;22.10;99.90
49224;DHT22;35050;51.316;5.994;2023-07-22T09:42:51;21.90;99.90
49224;DHT22;35050;51.316;5.994;2023-07-22T09:45:19;22.20;99.90
49224;DHT22;35050;51.316;5.994;2023-07-22T09:47:48;22.10;99.90
49224;DHT22;35050;51.316;5.994;2023-07-22T09:50:19;22.10;99.90
49224;DHT22;35050;51.316;5.994;2023-07-22T09:52:49;22.70;99.90
49224;DHT22;35050;51.316;5.994;2023-07-22T09:55:19;22.80;99.90
49224;DHT22;35050;51.316;5.994;2023-07-22T09:57:49;22.20;99.90
49224;DHT22;35050;51.316;5.994;2023-07-22T10:00:16;22.40;99.90
49224;DHT22;35050;51.316;5.994;2023-07-22T10:02:45;23.00;99.90
49224;DHT22;35050;51.316;5.994;2023-07-22T10:05:15;22.40;99.90
49224;DHT22;35050;51.316;5.994;2023-07-22T10:07:56;22.70;99.90
49224;DHT22;35050;51.316;5.994;2023-07-22T10:10:33;23.30;99.90
49224;DHT22;35050;51.316;5.994;2023-07-22T10:12:58;22.80;99.90
49224;DHT22;35050;51.316;5.994;2023-07-22T10:15:32;22.70;99.90
49224;DHT22;35050;51.316;5.994;2023-07-22T10:18:00;22.10;99.90
49224;DHT22;35050;51.316;5.994;2023-07-22T10:20:26;22.30;99.90
49224;DHT22;35050;51.316;5.994;2023-07-22T10:22:54;21.90;99.90
49224;DHT22;35050;51.316;5.994;2023-07-22T10:25:21;22.30;99.90
49224;DHT22;35050;51.316;5.994;2023-07-22T10:27:48;22.70;99.90
49224;DHT22;35050;51.316;5.994;2023-07-22T10:30:16;23.10;99.90
49224;DHT22;35050;51.316;5.994;2023-07-22T10:35:09;23.00;99.90
49224;DHT22;35050;51.316;5.994;2023-07-22T10:37:36;23.40;99.90
49224;DHT22;35050;51.316;5.994;2023-07-22T10:40:18;23.70;99.90
49224;DHT22;35050;51.316;5.994;2023-07-22T10:43:14;24.10;99.80
49224;DHT22;35050;51.316;5.994;2023-07-22T10:45:43;24.00;99.10
49224;DHT22;35050;51.316;5.994;2023-07-22T10:48:12;23.60;98.80
49224;DHT22;35050;51.316;5.994;2023-07-22T10:50:52;23.70;99.80
49224;DHT22;35050;51.316;5.994;2023-07-22T10:58:32;23.80;98.90
49224;DHT22;35050;51.316;5.994;2023-07-22T11:12:17;23.90;97.70
49224;DHT22;35050;51.316;5.994;2023-07-22T11:14:51;24.30;97.10
49224;DHT22;35050;51.316;5.994;2023-07-22T11:17:23;24.20;96.80
49224;DHT22;35050;51.316;5.994;2023-07-22T11:19:53;24.40;97.30
49224;DHT22;35050;51.316;5.994;2023-07-22T11:22:20;24.20;96.80
49224;DHT22;35050;51.316;5.994;2023-07-22T11:24:45;24.60;97.10
49224;DHT22;35050;51.316;5.994;2023-07-22T11:27:12;24.50;96.70
49224;DHT22;35050;51.316;5.994;2023-07-22T11:29:37;24.10;97.00
49224;DHT22;35050;51.316;5.994;2023-07-22T11:32:04;23.90;96.50
49224;DHT22;35050;51.316;5.994;2023-07-22T11:34:29;24.00;97.10
49224;DHT22;35050;51.316;5.994;2023-07-22T11:36:56;24.30;97.30
49224;DHT22;35050;51.316;5.994;2023-07-22T11:39:24;23.60;97.40
49224;DHT22;35050;51.316;5.994;2023-07-22T11:41:51;23.30;97.90
49224;DHT22;35050;51.316;5.994;2023-07-22T11:44:18;23.50;98.10
49224;DHT22;35050;51.316;5.994;2023-07-22T11:49:29;23.40;97.20
49224;DHT22;35050;51.316;5.994;2023-07-22T11:52:00;23.70;97.00
49224;DHT22;35050;51.316;5.994;2023-07-22T11:54:26;23.30;96.40
49224;DHT22;35050;51.316;5.994;2023-07-22T11:56:52;23.50;95.90
49224;DHT22;35050;51.316;5.994;2023-07-22T11:59:36;23.50;96.40
49224;DHT22;35050;51.316;5.994;2023-07-22T12:02:02;23.70;95.50
49224;DHT22;35050;51.316;5.994;2023-07-22T12:04:31;23.50;95.00
49224;DHT22;35050;51.316;5.994;2023-07-22T12:06:58;23.70;95.30
49224;DHT22;35050;51.316;5.994;2023-07-22T12:09:24;23.40;95.40
49224;DHT22;35050;51.316;5.994;2023-07-22T12:11:58;23.70;95.50
49224;DHT22;35050;51.316;5.994;2023-07-22T12:14:25;23.90;94.50
49224;DHT22;35050;51.316;5.994;2023-07-22T12:16:57;24.00;95.20
49224;DHT22;35050;51.316;5.994;2023-07-22T12:19:23;23.80;94.00
49224;DHT22;35050;51.316;5.994;2023-07-22T12:21:49;24.10;95.00
49224;DHT22;35050;51.316;5.994;2023-07-22T12:24:15;24.00;93.70
49224;DHT22;35050;51.316;5.994;2023-07-22T12:26:41;23.70;94.80
49224;DHT22;35050;51.316;5.994;2023-07-22T12:29:07;23.90;94.70
49224;DHT22;35050;51.316;5.994;2023-07-22T12:31:33;24.10;94.50
49224;DHT22;35050;51.316;5.994;2023-07-22T12:33:59;24.70;94.50
49224;DHT22;35050;51.316;5.994;2023-07-22T12:36:24;24.40;94.20
49224;DHT22;35050;51.316;5.994;2023-07-22T12:38:51;23.70;94.10
49224;DHT22;35050;51.316;5.994;2023-07-22T12:41:16;23.90;94.90
49224;DHT22;35050;51.316;5.994;2023-07-22T12:43:42;24.00;94.10
49224;DHT22;35050;51.316;5.994;2023-07-22T12:46:07;24.20;94.70
49224;DHT22;35050;51.316;5.994;2023-07-22T12:48:33;24.10;93.80
49224;DHT22;35050;51.316;5.994;2023-07-22T12:50:59;23.90;93.70
49224;DHT22;35050;51.316;5.994;2023-07-22T12:53:25;23.70;93.30
49224;DHT22;35050;51.316;5.994;2023-07-22T12:55:50;23.90;93.40
49224;DHT22;35050;51.316;5.994;2023-07-22T12:58:16;24.10;93.60
49224;DHT22;35050;51.316;5.994;2023-07-22T13:00:42;24.00;93.10
49224;DHT22;35050;51.316;5.994;2023-07-22T13:03:07;23.70;92.70
49224;DHT22;35050;51.316;5.994;2023-07-22T13:05:33;24.00;93.30
49224;DHT22;35050;51.316;5.994;2023-07-22T13:07:58;24.30;93.70
49224;DHT22;35050;51.316;5.994;2023-07-22T13:10:27;24.50;93.30
49224;DHT22;35050;51.316;5.994;2023-07-22T13:12:54;24.80;94.20
49224;DHT22;35050;51.316;5.994;2023-07-22T13:15:20;24.40;93.00
49224;DHT22;35050;51.316;5.994;2023-07-22T13:17:45;24.50;92.80
49224;DHT22;35050;51.316;5.994;2023-07-22T13:20:11;24.70;93.40
49224;DHT22;35050;51.316;5.994;2023-07-22T13:22:38;24.50;92.10
49224;DHT22;35050;51.316;5.994;2023-07-22T13:25:04;24.60;92.80
49224;DHT22;35050;51.316;5.994;2023-07-22T13:27:29;24.80;91.70
49224;DHT22;35050;51.316;5.994;2023-07-22T13:29:55;25.00;92.00
49224;DHT22;35050;51.316;5.994;2023-07-22T13:32:21;25.10;92.90
49224;DHT22;35050;51.316;5.994;2023-07-22T13:34:46;25.30;91.20
49224;DHT22;35050;51.316;5.994;2023-07-22T13:37:12;25.70;90.90
49224;DHT22;35050;51.316;5.994;2023-07-22T13:39:38;24.90;90.30
49224;DHT22;35050;51.316;5.994;2023-07-22T13:42:03;24.90;91.30
49224;DHT22;35050;51.316;5.994;2023-07-22T13:44:29;25.10;91.10
49224;DHT22;35050;51.316;5.994;2023-07-22T13:46:55;25.00;91.50
49224;DHT22;35050;51.316;5.994;2023-07-22T13:49:20;24.90;91.00
49224;DHT22;35050;51.316;5.994;2023-07-22T13:51:46;25.30;91.10
49224;DHT22;35050;51.316;5.994;2023-07-22T13:54:12;25.00;90.30
49224;DHT22;35050;51.316;5.994;2023-07-22T13:56:37;25.40;91.10
49224;DHT22;35050;51.316;5.994;2023-07-22T13:59:03;25.00;91.20
49224;DHT22;35050;51.316;5.994;2023-07-22T14:01:30;25.30;90.80
49224;DHT22;35050;51.316;5.994;2023-07-22T14:03:56;26.10;90.40
49224;DHT22;35050;51.316;5.994;2023-07-22T14:06:22;26.30;90.80
49224;DHT22;35050;51.316;5.994;2023-07-22T14:08:48;26.20;89.70
49224;DHT22;35050;51.316;5.994;2023-07-22T14:11:14;26.00;89.30
49224;DHT22;35050;51.316;5.994;2023-07-22T14:13:39;26.00;88.30
49224;DHT22;35050;51.316;5.994;2023-07-22T14:16:05;25.70;89.50
49224;DHT22;35050;51.316;5.994;2023-07-22T14:18:30;25.40;90.40
49224;DHT22;35050;51.316;5.994;2023-07-22T14:20:56;25.20;90.50
49224;DHT22;35050;51.316;5.994;2023-07-22T14:23:22;25.70;90.40
49224;DHT22;35050;51.316;5.994;2023-07-22T14:25:47;25.50;90.00
49224;DHT22;35050;51.316;5.994;2023-07-22T14:28:13;25.50;90.60
49224;DHT22;35050;51.316;5.994;2023-07-22T14:30:39;25.50;89.00
49224;DHT22;35050;51.316;5.994;2023-07-22T14:33:04;25.30;88.20
49224;DHT22;35050;51.316;5.994;2023-07-22T14:35:30;25.40;90.10
49224;DHT22;35050;51.316;5.994;2023-07-22T14:37:58;25.00;88.20
49224;DHT22;35050;51.316;5.994;2023-07-22T14:40:25;24.40;89.70
49224;DHT22;35050;51.316;5.994;2023-07-22T14:42:51;24.50;89.40
49224;DHT22;35050;51.316;5.994;2023-07-22T14:45:16;24.60;90.10
49224;DHT22;35050;51.316;5.994;2023-07-22T14:47:42;24.50;89.40
49224;DHT22;35050;51.316;5.994;2023-07-22T14:50:09;24.40;90.70
49224;DHT22;35050;51.316;5.994;2023-07-22T14:52:35;24.40;89.50
49224;DHT22;35050;51.316;5.994;2023-07-22T14:55:00;24.70;90.30
49224;DHT22;35050;51.316;5.994;2023-07-22T14:57:26;24.80;90.10
49224;DHT22;35050;51.316;5.994;2023-07-22T14:59:55;25.10;89.40
49224;DHT22;35050;51.316;5.994;2023-07-22T15:02:21;24.50;90.40
49224;DHT22;35050;51.316;5.994;2023-07-22T15:04:47;24.70;90.50
49224;DHT22;35050;51.316;5.994;2023-07-22T15:07:13;24.50;90.50
49224;DHT22;35050;51.316;5.994;2023-07-22T15:09:39;24.70;90.70
49224;DHT22;35050;51.316;5.994;2023-07-22T15:12:05;24.60;90.40
49224;DHT22;35050;51.316;5.994;2023-07-22T15:14:30;24.70;90.50
49224;DHT22;35050;51.316;5.994;2023-07-22T15:16:56;24.50;90.60
49224;DHT22;35050;51.316;5.994;2023-07-22T15:19:22;24.60;90.70
49224;DHT22;35050;51.316;5.994;2023-07-22T15:21:48;24.80;91.10
49224;DHT22;35050;51.316;5.994;2023-07-22T15:24:14;24.40;91.00
49224;DHT22;35050;51.316;5.994;2023-07-22T15:26:40;24.20;90.80
49224;DHT22;35050;51.316;5.994;2023-07-22T15:29:07;24.50;90.30
49224;DHT22;35050;51.316;5.994;2023-07-22T15:31:32;24.90;90.90
49224;DHT22;35050;51.316;5.994;2023-07-22T15:33:58;25.10;91.10
49224;DHT22;35050;51.316;5.994;2023-07-22T15:36:24;24.90;90.60
49224;DHT22;35050;51.316;5.994;2023-07-22T15:38:49;24.90;91.20
49224;DHT22;35050;51.316;5.994;2023-07-22T15:41:15;25.40;91.20
49224;DHT22;35050;51.316;5.994;2023-07-22T15:43:41;25.40;91.50
49224;DHT22;35050;51.316;5.994;2023-07-22T15:46:06;25.10;90.40
49224;DHT22;35050;51.316;5.994;2023-07-22T15:48:32;24.80;90.40
49224;DHT22;35050;51.316;5.994;2023-07-22T15:50:58;24.20;90.40